sensor_id;sensor_type;location;lat;lon;timestamp;pressure;altitude;pressure_sealevel;temperature;humidity
53651;BME280;39552;45.776;15.892;2023-02-12T00:01:14;101969.97;;;2.62;100.00
53651;BME280;39552;45.776;15.892;2023-02-12T00:03:42;101972.66;;;2.58;100.00
53651;BME280;39552;45.776;15.892;2023-02-12T00:06:10;101977.97;;;2.39;100.00
53651;BME280;39552;45.776;15.892;2023-02-12T00:08:41;101973.53;;;2.52;100.00
53651;BME280;39552;45.776;15.892;2023-02-12T00:11:10;101961.97;;;2.50;100.00
53651;BME280;39552;45.776;15.892;2023-02-12T00:13:37;101972.66;;;2.64;100.00
53651;BME280;39552;45.776;15.892;2023-02-12T00:16:06;101982.47;;;2.69;100.00
53651;BME280;39552;45.776;15.892;2023-02-12T00:18:33;101976.22;;;2.67;100.00
53651;BME280;39552;45.776;15.892;2023-02-12T00:21:02;101985.97;;;2.39;100.00
53651;BME280;39552;45.776;15.892;2023-02-12T00:23:28;101982.41;;;2.43;100.00
53651;BME280;39552;45.776;15.892;2023-02-12T00:25:55;101994.03;;;2.65;100.00
53651;BME280;39552;45.776;15.892;2023-02-12T00:28:22;101976.22;;;2.63;100.00
53651;BME280;39552;45.776;15.892;2023-02-12T00:30:49;101994.03;;;2.76;100.00
53651;BME280;39552;45.776;15.892;2023-02-12T00:33:16;101994.03;;;2.73;100.00
53651;BME280;39552;45.776;15.892;2023-02-12T00:35:43;101994.94;;;2.73;100.00
53651;BME280;39552;45.776;15.892;2023-02-12T00:38:11;101992.25;;;2.61;100.00
53651;BME280;39552;45.776;15.892;2023-02-12T00:40:38;101995.81;;;2.54;100.00
53651;BME280;39552;45.776;15.892;2023-02-12T00:43:04;101988.66;;;2.34;100.00
53651;BME280;39552;45.776;15.892;2023-02-12T00:45:31;101997.53;;;2.27;100.00
53651;BME280;39552;45.776;15.892;2023-02-12T00:47:58;102012.72;;;2.58;100.00
53651;BME280;39552;45.776;15.892;2023-02-12T00:50:24;102003.81;;;2.48;100.00
53651;BME280;39552;45.776;15.892;2023-02-12T00:52:51;102012.69;;;2.42;100.00
53651;BME280;39552;45.776;15.892;2023-02-12T00:55:19;102004.72;;;2.51;100.00
53651;BME280;39552;45.776;15.892;2023-02-12T00:57:46;102015.34;;;2.30;100.00
53651;BME280;39552;45.776;15.892;2023-02-12T01:00:14;101995.75;;;2.29;100.00
53651;BME280;39552;45.776;15.892;2023-02-12T01:02:41;102004.72;;;2.51;100.00
53651;BME280;39552;45.776;15.892;2023-02-12T01:05:08;102002.03;;;2.61;100.00
53651;BME280;39552;45.776;15.892;2023-02-12T01:07:35;102011.84;;;2.49;100.00
53651;BME280;39552;45.776;15.892;2023-02-12T01:10:01;102016.31;;;2.55;100.00
53651;BME280;39552;45.776;15.892;2023-02-12T01:12:29;102028.72;;;2.45;100.00
53651;BME280;39552;45.776;15.892;2023-02-12T01:14:56;102030.50;;;2.40;100.00
53651;BME280;39552;45.776;15.892;2023-02-12T01:17:23;102025.97;;;2.16;100.00
53651;BME280;39552;45.776;15.892;2023-02-12T01:19:50;102042.03;;;2.21;100.00
53651;BME280;39552;45.776;15.892;2023-02-12T01:22:16;102026.97;;;2.53;100.00
53651;BME280;39552;45.776;15.892;2023-02-12T01:24:43;102026.09;;;2.59;100.00
53651;BME280;39552;45.776;15.892;2023-02-12T01:27:09;102018.97;;;2.58;100.00
53651;BME280;39552;45.776;15.892;2023-02-12T01:29:38;102016.28;;;2.58;100.00
53651;BME280;39552;45.776;15.892;2023-02-12T01:32:04;102012.72;;;2.51;100.00
53651;BME280;39552;45.776;15.892;2023-02-12T01:34:31;102011.84;;;2.66;100.00
53651;BME280;39552;45.776;15.892;2023-02-12T01:36:58;102014.50;;;2.60;100.00
53651;BME280;39552;45.776;15.892;2023-02-12T01:39:24;102006.47;;;2.51;100.00
53651;BME280;39552;45.776;15.892;2023-02-12T01:41:51;102003.84;;;2.72;100.00
53651;BME280;39552;45.776;15.892;2023-02-12T01:44:19;102018.13;;;2.88;100.00
53651;BME280;39552;45.776;15.892;2023-02-12T01:46:49;102030.59;;;2.92;100.00
53651;BME280;39552;45.776;15.892;2023-02-12T01:49:21;102025.13;;;2.35;100.00
53651;BME280;39552;45.776;15.892;2023-02-12T01:51:51;102040.22;;;2.15;100.00
53651;BME280;39552;45.776;15.892;2023-02-12T01:54:20;102037.47;;;2.03;100.00
53651;BME280;39552;45.776;15.892;2023-02-12T01:56:48;102037.59;;;2.24;100.00
53651;BME280;39552;45.776;15.892;2023-02-12T01:59:15;102020.66;;;2.27;100.00
53651;BME280;39552;45.776;15.892;2023-02-12T02:01:43;102010.00;;;2.45;100.00
53651;BME280;39552;45.776;15.892;2023-02-12T02:04:15;102008.25;;;2.38;100.00
53651;BME280;39552;45.776;15.892;2023-02-12T02:06:47;102003.81;;;2.55;100.00
53651;BME280;39552;45.776;15.892;2023-02-12T02:09:17;102008.31;;;2.77;100.00
53651;BME280;39552;45.776;15.892;2023-02-12T02:11:44;102018.09;;;2.87;100.00
53651;BME280;39552;45.776;15.892;2023-02-12T02:14:11;102022.56;;;2.86;100.00
53651;BME280;39552;45.776;15.892;2023-02-12T02:16:42;102023.44;;;2.91;100.00
53651;BME280;39552;45.776;15.892;2023-02-12T02:19:19;102019.91;;;2.86;100.00
53651;BME280;39552;45.776;15.892;2023-02-12T02:22:20;102017.19;;;2.82;100.00
53651;BME280;39552;45.776;15.892;2023-02-12T02:25:14;102020.78;;;2.81;100.00
53651;BME280;39552;45.776;15.892;2023-02-12T02:27:57;102012.75;;;2.87;100.00
53651;BME280;39552;45.776;15.892;2023-02-12T02:30:34;102013.63;;;2.87;100.00
53651;BME280;39552;45.776;15.892;2023-02-12T02:33:21;102008.28;;;2.87;100.00
53651;BME280;39552;45.776;15.892;2023-02-12T02:35:54;102007.41;;;2.73;100.00
53651;BME280;39552;45.776;15.892;2023-02-12T02:38:31;102000.25;;;2.60;100.00
53651;BME280;39552;45.776;15.892;2023-02-12T02:41:03;102019.88;;;2.68;100.00
53651;BME280;39552;45.776;15.892;2023-02-12T02:43:34;102022.53;;;2.68;100.00
53651;BME280;39552;45.776;15.892;2023-02-12T02:46:06;102027.00;;;2.69;100.00
53651;BME280;39552;45.776;15.892;2023-02-12T02:48:37;102032.38;;;2.83;100.00
53651;BME280;39552;45.776;15.892;2023-02-12T02:51:08;102026.03;;;2.38;100.00
53651;BME280;39552;45.776;15.892;2023-02-12T02:53:38;102042.06;;;2.45;100.00
53651;BME280;39552;45.776;15.892;2023-02-12T02:56:11;102026.06;;;2.42;100.00
53651;BME280;39552;45.776;15.892;2023-02-12T02:58:42;102022.53;;;2.55;100.00
53651;BME280;39552;45.776;15.892;2023-02-12T03:01:14;102021.59;;;2.41;100.00
53651;BME280;39552;45.776;15.892;2023-02-12T03:03:47;102013.53;;;2.27;100.00
53651;BME280;39552;45.776;15.892;2023-02-12T03:06:21;102028.75;;;2.58;100.00
53651;BME280;39552;45.776;15.892;2023-02-12T03:08:52;102026.13;;;2.67;100.00
53651;BME280;39552;45.776;15.892;2023-02-12T03:11:23;102024.31;;;2.78;100.00
53651;BME280;39552;45.776;15.892;2023-02-12T03:13:56;102022.53;;;2.57;100.00
53651;BME280;39552;45.776;15.892;2023-02-12T03:16:28;102022.56;;;2.88;100.00
53651;BME280;39552;45.776;15.892;2023-02-12T03:19:02;102038.56;;;2.49;100.00
53651;BME280;39552;45.776;15.892;2023-02-12T03:21:34;102057.31;;;2.83;100.00
53651;BME280;39552;45.776;15.892;2023-02-12T03:24:10;102057.34;;;2.95;100.00
53651;BME280;39552;45.776;15.892;2023-02-12T03:26:41;102052.88;;;3.11;100.00
53651;BME280;39552;45.776;15.892;2023-02-12T03:29:10;102050.19;;;3.01;100.00
53651;BME280;39552;45.776;15.892;2023-02-12T03:31:45;102040.38;;;2.84;100.00
53651;BME280;39552;45.776;15.892;2023-02-12T03:34:20;102033.25;;;2.80;100.00
53651;BME280;39552;45.776;15.892;2023-02-12T03:36:52;102037.69;;;2.93;100.00
53651;BME280;39552;45.776;15.892;2023-02-12T03:39:28;102023.47;;;2.94;100.00
53651;BME280;39552;45.776;15.892;2023-02-12T03:42:01;102041.28;;;3.08;100.00
53651;BME280;39552;45.776;15.892;2023-02-12T03:44:42;102040.38;;;3.10;100.00
53651;BME280;39552;45.776;15.892;2023-02-12T03:47:20;102046.63;;;3.09;100.00
53651;BME280;39552;45.776;15.892;2023-02-12T03:49:54;102051.09;;;3.12;100.00
53651;BME280;39552;45.776;15.892;2023-02-12T03:52:24;102054.66;;;3.20;100.00
53651;BME280;39552;45.776;15.892;2023-02-12T03:54:51;102058.22;;;3.21;100.00
53651;BME280;39552;45.776;15.892;2023-02-12T03:57:20;102041.28;;;3.39;100.00
53651;BME280;39552;45.776;15.892;2023-02-12T03:59:47;102029.69;;;3.26;100.00
53651;BME280;39552;45.776;15.892;2023-02-12T04:02:15;102043.97;;;3.23;100.00
53651;BME280;39552;45.776;15.892;2023-02-12T04:04:45;102052.84;;;3.07;100.00
53651;BME280;39552;45.776;15.892;2023-02-12T04:07:12;102040.38;;;3.10;100.00
53651;BME280;39552;45.776;15.892;2023-02-12T04:09:40;102048.41;;;3.06;100.00
53651;BME280;39552;45.776;15.892;2023-02-12T04:12:23;102041.28;;;2.92;100.00
53651;BME280;39552;45.776;15.892;2023-02-12T04:15:00;102061.78;;;3.07;100.00
53651;BME280;39552;45.776;15.892;2023-02-12T04:17:40;102067.13;;;3.13;100.00
53651;BME280;39552;45.776;15.892;2023-02-12T04:20:16;102068.00;;;3.19;100.00
53651;BME280;39552;45.776;15.892;2023-02-12T04:22:54;102068.03;;;3.14;100.00
53651;BME280;39552;45.776;15.892;2023-02-12T04:25:40;102076.03;;;3.22;100.00
53651;BME280;39552;45.776;15.892;2023-02-12T04:28:12;102060.88;;;3.25;100.00
53651;BME280;39552;45.776;15.892;2023-02-12T04:30:44;102072.50;;;3.21;100.00
53651;BME280;39552;45.776;15.892;2023-02-12T04:33:18;102065.34;;;3.26;100.00
53651;BME280;39552;45.776;15.892;2023-02-12T04:35:49;102074.28;;;3.42;100.00
53651;BME280;39552;45.776;15.892;2023-02-12T04:38:21;102064.47;;;3.46;100.00
53651;BME280;39552;45.776;15.892;2023-02-12T04:40:50;102065.34;;;3.29;100.00
53651;BME280;39552;45.776;15.892;2023-02-12T04:43:26;102083.19;;;3.38;100.00
53651;BME280;39552;45.776;15.892;2023-02-12T04:45:53;102090.28;;;3.45;100.00
53651;BME280;39552;45.776;15.892;2023-02-12T04:48:22;102084.97;;;3.33;100.00
53651;BME280;39552;45.776;15.892;2023-02-12T04:50:48;102098.31;;;3.44;100.00
53651;BME280;39552;45.776;15.892;2023-02-12T04:53:15;102092.97;;;3.44;100.00
53651;BME280;39552;45.776;15.892;2023-02-12T04:55:42;102098.31;;;3.45;100.00
53651;BME280;39552;45.776;15.892;2023-02-12T04:58:09;102113.50;;;3.40;100.00
53651;BME280;39552;45.776;15.892;2023-02-12T05:00:35;102114.41;;;3.41;100.00
53651;BME280;39552;45.776;15.892;2023-02-12T05:03:03;102120.63;;;3.43;100.00
53651;BME280;39552;45.776;15.892;2023-02-12T05:05:31;102131.34;;;3.53;100.00
53651;BME280;39552;45.776;15.892;2023-02-12T05:07:58;102139.34;;;3.49;100.00
53651;BME280;39552;45.776;15.892;2023-02-12T05:10:24;102152.72;;;3.55;100.00
53651;BME280;39552;45.776;15.892;2023-02-12T05:12:51;102157.19;;;3.59;100.00
53651;BME280;39552;45.776;15.892;2023-02-12T05:15:18;102155.41;;;3.30;100.00
53651;BME280;39552;45.776;15.892;2023-02-12T05:17:45;102154.50;;;3.38;100.00
53651;BME280;39552;45.776;15.892;2023-02-12T05:20:12;102162.56;;;3.41;100.00
53651;BME280;39552;45.776;15.892;2023-02-12T05:22:40;102162.53;;;3.25;100.00
53651;BME280;39552;45.776;15.892;2023-02-12T05:25:07;102158.06;;;3.33;100.00
53651;BME280;39552;45.776;15.892;2023-02-12T05:27:34;102176.81;;;3.27;100.00
53651;BME280;39552;45.776;15.892;2023-02-12T05:30:00;102184.81;;;3.15;100.00
53651;BME280;39552;45.776;15.892;2023-02-12T05:32:27;102168.75;;;3.10;100.00
53651;BME280;39552;45.776;15.892;2023-02-12T05:34:54;102160.72;;;3.24;100.00
53651;BME280;39552;45.776;15.892;2023-02-12T05:37:20;102180.38;;;3.42;100.00
53651;BME280;39552;45.776;15.892;2023-02-12T05:39:49;102171.44;;;3.27;100.00
53651;BME280;39552;45.776;15.892;2023-02-12T05:42:16;102185.72;;;3.25;100.00
53651;BME280;39552;45.776;15.892;2023-02-12T05:44:42;102178.56;;;3.24;100.00
53651;BME280;39552;45.776;15.892;2023-02-12T05:47:09;102174.97;;;2.95;100.00
53651;BME280;39552;45.776;15.892;2023-02-12T05:49:36;102187.38;;;2.87;100.00
53651;BME280;39552;45.776;15.892;2023-02-12T05:52:03;102192.78;;;3.09;100.00
53651;BME280;39552;45.776;15.892;2023-02-12T05:54:29;102181.16;;;2.81;100.00
53651;BME280;39552;45.776;15.892;2023-02-12T05:56:57;102195.31;;;2.64;100.00
53651;BME280;39552;45.776;15.892;2023-02-12T05:59:24;102183.69;;;2.54;100.00
53651;BME280;39552;45.776;15.892;2023-02-12T06:01:51;102190.03;;;2.73;100.00
53651;BME280;39552;45.776;15.892;2023-02-12T06:04:19;102206.94;;;2.75;100.00
53651;BME280;39552;45.776;15.892;2023-02-12T06:06:46;102203.34;;;2.63;100.00
53651;BME280;39552;45.776;15.892;2023-02-12T06:09:13;102190.78;;;2.45;100.00
53651;BME280;39552;45.776;15.892;2023-02-12T06:11:40;102205.13;;;2.65;100.00
53651;BME280;39552;45.776;15.892;2023-02-12T06:14:12;102205.16;;;2.76;100.00
53651;BME280;39552;45.776;15.892;2023-02-12T06:16:39;102206.97;;;2.79;100.00
53651;BME280;39552;45.776;15.892;2023-02-12T06:19:06;102213.22;;;2.85;100.00
53651;BME280;39552;45.776;15.892;2023-02-12T06:21:33;102205.22;;;2.91;100.00
53651;BME280;39552;45.776;15.892;2023-02-12T06:24:07;102202.59;;;3.08;100.00
53651;BME280;39552;45.776;15.892;2023-02-12T06:26:34;102202.63;;;3.10;100.00
53651;BME280;39552;45.776;15.892;2023-02-12T06:29:01;102217.75;;;3.06;100.00
53651;BME280;39552;45.776;15.892;2023-02-12T06:31:32;102218.66;;;3.16;100.00
53651;BME280;39552;45.776;15.892;2023-02-12T06:34:01;102224.94;;;3.21;100.00
53651;BME280;39552;45.776;15.892;2023-02-12T06:36:28;102207.09;;;3.23;100.00
53651;BME280;39552;45.776;15.892;2023-02-12T06:38:55;102217.78;;;3.14;100.00
53651;BME280;39552;45.776;15.892;2023-02-12T06:41:22;102211.53;;;3.10;100.00
53651;BME280;39552;45.776;15.892;2023-02-12T06:43:49;102211.56;;;3.23;100.00
53651;BME280;39552;45.776;15.892;2023-02-12T06:46:15;102230.31;;;3.29;100.00
53651;BME280;39552;45.776;15.892;2023-02-12T06:48:44;102234.75;;;3.24;100.00
53651;BME280;39552;45.776;15.892;2023-02-12T06:51:12;102225.84;;;3.29;100.00
53651;BME280;39552;45.776;15.892;2023-02-12T06:53:39;102225.84;;;3.28;100.00
53651;BME280;39552;45.776;15.892;2023-02-12T06:56:09;102224.97;;;3.40;100.00
53651;BME280;39552;45.776;15.892;2023-02-12T06:58:36;102233.88;;;3.29;100.00
53651;BME280;39552;45.776;15.892;2023-02-12T07:01:07;102257.97;;;3.32;100.00
53651;BME280;39552;45.776;15.892;2023-02-12T07:03:34;102258.03;;;3.68;100.00
53651;BME280;39552;45.776;15.892;2023-02-12T07:06:04;102248.19;;;3.62;100.00
53651;BME280;39552;45.776;15.892;2023-02-12T07:08:30;102252.63;;;3.43;100.00
53651;BME280;39552;45.776;15.892;2023-02-12T07:10:57;102251.75;;;3.55;100.00
53651;BME280;39552;45.776;15.892;2023-02-12T07:13:24;102264.22;;;3.51;100.00
53651;BME280;39552;45.776;15.892;2023-02-12T07:15:50;102266.03;;;3.54;100.00
53651;BME280;39552;45.776;15.892;2023-02-12T07:18:17;102254.44;;;3.63;100.00
53651;BME280;39552;45.776;15.892;2023-02-12T07:20:44;102271.41;;;3.83;100.00
53651;BME280;39552;45.776;15.892;2023-02-12T07:23:12;102267.81;;;3.55;100.00
53651;BME280;39552;45.776;15.892;2023-02-12T07:25:39;102274.09;;;3.63;100.00
53651;BME280;39552;45.776;15.892;2023-02-12T07:28:07;102279.44;;;3.68;100.00
53651;BME280;39552;45.776;15.892;2023-02-12T07:30:33;102274.09;;;3.79;100.00
53651;BME280;39552;45.776;15.892;2023-02-12T07:33:00;102291.94;;;3.81;100.00
53651;BME280;39552;45.776;15.892;2023-02-12T07:35:27;102297.28;;;3.84;100.00
53651;BME280;39552;45.776;15.892;2023-02-12T07:37:53;102302.66;;;3.87;100.00
53651;BME280;39552;45.776;15.892;2023-02-12T07:40:22;102298.19;;;4.03;100.00
53651;BME280;39552;45.776;15.892;2023-02-12T07:42:48;102300.91;;;4.16;100.00
53651;BME280;39552;45.776;15.892;2023-02-12T07:45:19;102317.84;;;4.05;100.00
53651;BME280;39552;45.776;15.892;2023-02-12T07:47:46;102297.31;;;3.89;100.00
53651;BME280;39552;45.776;15.892;2023-02-12T07:50:13;102307.09;;;3.82;100.00
53651;BME280;39552;45.776;15.892;2023-02-12T07:52:39;102319.63;;;3.99;100.00
53651;BME280;39552;45.776;15.892;2023-02-12T07:55:07;102303.53;;;3.82;100.00
53651;BME280;39552;45.776;15.892;2023-02-12T07:57:35;102314.25;;;3.82;100.00
53651;BME280;39552;45.776;15.892;2023-02-12T08:00:03;102295.50;;;4.11;100.00
53651;BME280;39552;45.776;15.892;2023-02-12T08:02:30;102300.00;;;4.27;100.00
53651;BME280;39552;45.776;15.892;2023-02-12T08:04:58;102302.66;;;4.30;100.00
53651;BME280;39552;45.776;15.892;2023-02-12T08:07:24;102294.63;;;4.20;100.00
53651;BME280;39552;45.776;15.892;2023-02-12T08:09:51;102298.19;;;4.45;100.00
53651;BME280;39552;45.776;15.892;2023-02-12T08:12:18;102291.03;;;4.42;100.00
53651;BME280;39552;45.776;15.892;2023-02-12T08:14:46;102291.94;;;4.50;100.00
53651;BME280;39552;45.776;15.892;2023-02-12T08:17:13;102289.22;;;4.66;100.00
53651;BME280;39552;45.776;15.892;2023-02-12T08:19:40;102296.34;;;4.70;100.00
53651;BME280;39552;45.776;15.892;2023-02-12T08:22:06;102307.00;;;4.90;100.00
53651;BME280;39552;45.776;15.892;2023-02-12T08:24:33;102302.59;;;4.72;100.00
53651;BME280;39552;45.776;15.892;2023-02-12T08:27:00;102300.75;;;4.86;100.00
53651;BME280;39552;45.776;15.892;2023-02-12T08:29:29;102308.72;;;5.09;98.62
53651;BME280;39552;45.776;15.892;2023-02-12T08:31:59;102322.13;;;5.17;98.37
53651;BME280;39552;45.776;15.892;2023-02-12T08:34:27;102312.41;;;4.81;97.58
53651;BME280;39552;45.776;15.892;2023-02-12T08:36:54;102324.88;;;4.96;96.96
53651;BME280;39552;45.776;15.892;2023-02-12T08:39:22;102325.81;;;4.85;97.42
53651;BME280;39552;45.776;15.892;2023-02-12T08:41:49;102319.56;;;4.82;98.73
53651;BME280;39552;45.776;15.892;2023-02-12T08:44:16;102315.09;;;4.65;96.49
53651;BME280;39552;45.776;15.892;2023-02-12T08:46:45;102330.25;;;4.99;94.68
53651;BME280;39552;45.776;15.892;2023-02-12T08:49:16;102349.78;;;5.33;94.03
53651;BME280;39552;45.776;15.892;2023-02-12T08:51:45;102349.78;;;5.38;92.67
53651;BME280;39552;45.776;15.892;2023-02-12T08:54:14;102331.03;;;5.31;91.47
53651;BME280;39552;45.776;15.892;2023-02-12T08:56:41;102350.59;;;5.52;89.97
53651;BME280;39552;45.776;15.892;2023-02-12T08:59:09;102341.53;;;5.76;89.21
53651;BME280;39552;45.776;15.892;2023-02-12T09:01:37;102322.63;;;5.93;89.93
53651;BME280;39552;45.776;15.892;2023-02-12T09:04:05;102337.81;;;5.99;88.25
53651;BME280;39552;45.776;15.892;2023-02-12T09:06:34;102337.84;;;5.97;87.34
53651;BME280;39552;45.776;15.892;2023-02-12T09:09:01;102344.97;;;6.01;88.01
53651;BME280;39552;45.776;15.892;2023-02-12T09:11:28;102339.63;;;5.89;85.93
53651;BME280;39552;45.776;15.892;2023-02-12T09:13:56;102333.34;;;5.96;86.89
53651;BME280;39552;45.776;15.892;2023-02-12T09:16:23;102344.00;;;6.12;87.70
53651;BME280;39552;45.776;15.892;2023-02-12T09:18:49;102354.78;;;6.05;87.48
53651;BME280;39552;45.776;15.892;2023-02-12T09:21:17;102361.19;;;5.80;87.86
53651;BME280;39552;45.776;15.892;2023-02-12T09:23:45;102341.66;;;5.55;87.76
53651;BME280;39552;45.776;15.892;2023-02-12T09:26:14;102353.16;;;5.77;90.34
53651;BME280;39552;45.776;15.892;2023-02-12T09:28:41;102354.06;;;5.69;90.21
53651;BME280;39552;45.776;15.892;2023-02-12T09:31:09;102365.72;;;5.70;90.95
53651;BME280;39552;45.776;15.892;2023-02-12T09:33:37;102370.13;;;5.82;92.03
53651;BME280;39552;45.776;15.892;2023-02-12T09:36:06;102366.41;;;6.04;90.96
53651;BME280;39552;45.776;15.892;2023-02-12T09:38:33;102371.78;;;6.06;89.97
53651;BME280;39552;45.776;15.892;2023-02-12T09:41:11;102375.25;;;6.25;88.81
53651;BME280;39552;45.776;15.892;2023-02-12T09:43:43;102373.59;;;6.05;87.18
53651;BME280;39552;45.776;15.892;2023-02-12T09:46:17;102370.75;;;6.27;86.25
53651;BME280;39552;45.776;15.892;2023-02-12T09:48:56;102370.63;;;6.39;83.87
53651;BME280;39552;45.776;15.892;2023-02-12T09:51:27;102356.22;;;6.49;84.01
53651;BME280;39552;45.776;15.892;2023-02-12T09:54:02;102376.69;;;6.66;84.83
53651;BME280;39552;45.776;15.892;2023-02-12T09:56:33;102369.47;;;6.69;84.60
53651;BME280;39552;45.776;15.892;2023-02-12T09:59:01;102381.13;;;6.70;84.09
53651;BME280;39552;45.776;15.892;2023-02-12T10:01:29;102365.94;;;6.66;84.64
53651;BME280;39552;45.776;15.892;2023-02-12T10:03:57;102366.63;;;6.86;86.26
53651;BME280;39552;45.776;15.892;2023-02-12T10:06:25;102381.81;;;6.94;85.90
53651;BME280;39552;45.776;15.892;2023-02-12T10:09:14;102371.00;;;6.98;85.55
53651;BME280;39552;45.776;15.892;2023-02-12T10:11:53;102362.81;;;7.09;86.18
53651;BME280;39552;45.776;15.892;2023-02-12T10:14:45;102379.78;;;7.13;87.03
53651;BME280;39552;45.776;15.892;2023-02-12T10:17:22;102365.38;;;7.18;86.58
53651;BME280;39552;45.776;15.892;2023-02-12T10:22:58;102367.94;;;7.31;86.32
53651;BME280;39552;45.776;15.892;2023-02-12T10:25:34;102359.88;;;7.31;88.34
53651;BME280;39552;45.776;15.892;2023-02-12T10:28:08;102375.91;;;7.40;88.18
53651;BME280;39552;45.776;15.892;2023-02-12T10:30:42;102374.91;;;7.47;87.97
53651;BME280;39552;45.776;15.892;2023-02-12T10:33:15;102369.53;;;7.47;89.08
53651;BME280;39552;45.776;15.892;2023-02-12T10:35:46;102374.88;;;7.50;88.10
53651;BME280;39552;45.776;15.892;2023-02-12T10:38:16;102364.88;;;7.61;87.87
53651;BME280;39552;45.776;15.892;2023-02-12T10:40:45;102357.25;;;7.90;90.71
53651;BME280;39552;45.776;15.892;2023-02-12T10:43:13;102363.28;;;8.07;92.39
53651;BME280;39552;45.776;15.892;2023-02-12T10:45:41;102349.03;;;8.00;92.28
53651;BME280;39552;45.776;15.892;2023-02-12T10:48:11;102349.75;;;8.13;89.92
53651;BME280;39552;45.776;15.892;2023-02-12T10:50:51;102343.63;;;8.02;90.83
53651;BME280;39552;45.776;15.892;2023-02-12T10:53:22;102332.41;;;8.26;90.92
53651;BME280;39552;45.776;15.892;2023-02-12T10:55:49;102330.63;;;8.27;91.51
53651;BME280;39552;45.776;15.892;2023-02-12T10:58:31;102324.16;;;8.39;90.09
53651;BME280;39552;45.776;15.892;2023-02-12T11:00:59;102324.09;;;8.43;90.74
53651;BME280;39552;45.776;15.892;2023-02-12T11:03:31;102324.09;;;8.42;90.86
53651;BME280;39552;45.776;15.892;2023-02-12T11:06:11;102318.22;;;8.71;88.69
53651;BME280;39552;45.776;15.892;2023-02-12T11:08:38;102339.13;;;9.07;89.36
53651;BME280;39552;45.776;15.892;2023-02-12T11:11:09;102327.59;;;9.40;87.14
53651;BME280;39552;45.776;15.892;2023-02-12T11:13:39;102323.56;;;9.19;87.33
53651;BME280;39552;45.776;15.892;2023-02-12T11:16:07;102318.47;;;9.46;88.35
53651;BME280;39552;45.776;15.892;2023-02-12T11:18:34;102324.53;;;9.57;85.69
53651;BME280;39552;45.776;15.892;2023-02-12T11:21:03;102309.03;;;9.65;87.05
53651;BME280;39552;45.776;15.892;2023-02-12T11:23:35;102312.19;;;9.45;84.75
53651;BME280;39552;45.776;15.892;2023-02-12T11:26:05;102321.44;;;9.34;87.22
53651;BME280;39552;45.776;15.892;2023-02-12T11:28:34;102313.38;;;9.32;84.71
53651;BME280;39552;45.776;15.892;2023-02-12T11:31:03;102309.94;;;9.24;85.04
53651;BME280;39552;45.776;15.892;2023-02-12T11:33:44;102302.19;;;9.07;86.15
53651;BME280;39552;45.776;15.892;2023-02-12T11:36:15;102298.34;;;9.19;85.25
53651;BME280;39552;45.776;15.892;2023-02-12T11:38:49;102290.38;;;9.55;83.66
53651;BME280;39552;45.776;15.892;2023-02-12T11:41:23;102287.97;;;9.81;83.80
53651;BME280;39552;45.776;15.892;2023-02-12T11:43:50;102285.50;;;9.71;84.51
53651;BME280;39552;45.776;15.892;2023-02-12T11:46:22;102284.75;;;10.01;83.24
53651;BME280;39552;45.776;15.892;2023-02-12T11:48:54;102279.81;;;10.19;82.27
53651;BME280;39552;45.776;15.892;2023-02-12T11:51:25;102285.66;;;10.00;81.71
53651;BME280;39552;45.776;15.892;2023-02-12T11:53:53;102286.41;;;10.09;84.25
53651;BME280;39552;45.776;15.892;2023-02-12T11:56:21;102287.81;;;9.88;85.09
53651;BME280;39552;45.776;15.892;2023-02-12T11:58:49;102280.72;;;9.82;85.61
53651;BME280;39552;45.776;15.892;2023-02-12T12:01:21;102292.59;;;9.75;85.53
53651;BME280;39552;45.776;15.892;2023-02-12T12:03:58;102276.91;;;9.52;85.57
53651;BME280;39552;45.776;15.892;2023-02-12T12:06:33;102279.06;;;9.37;86.41
53651;BME280;39552;45.776;15.892;2023-02-12T12:09:06;102289.53;;;9.53;85.02
53651;BME280;39552;45.776;15.892;2023-02-12T12:11:42;102294.66;;;9.63;85.15
53651;BME280;39552;45.776;15.892;2023-02-12T12:14:17;102282.16;;;9.59;87.42
53651;BME280;39552;45.776;15.892;2023-02-12T12:16:53;102267.88;;;9.54;87.44
53651;BME280;39552;45.776;15.892;2023-02-12T12:19:24;102281.97;;;9.67;86.48
53651;BME280;39552;45.776;15.892;2023-02-12T12:22:01;102269.97;;;9.79;85.85
53651;BME280;39552;45.776;15.892;2023-02-12T12:24:36;102277.81;;;9.91;86.14
53651;BME280;39552;45.776;15.892;2023-02-12T12:27:11;102261.00;;;10.14;83.14
53651;BME280;39552;45.776;15.892;2023-02-12T12:29:47;102269.56;;;9.96;83.24
53651;BME280;39552;45.776;15.892;2023-02-12T12:32:19;102258.09;;;9.86;84.65
53651;BME280;39552;45.776;15.892;2023-02-12T12:34:47;102269.06;;;9.80;87.16
53651;BME280;39552;45.776;15.892;2023-02-12T12:37:25;102272.97;;;9.67;89.26
53651;BME280;39552;45.776;15.892;2023-02-12T12:40:24;102272.00;;;9.69;88.84
53651;BME280;39552;45.776;15.892;2023-02-12T12:43:11;102263.88;;;9.71;89.38
53651;BME280;39552;45.776;15.892;2023-02-12T12:45:59;102257.94;;;9.92;87.65
53651;BME280;39552;45.776;15.892;2023-02-12T12:48:43;102267.66;;;10.01;85.80
53651;BME280;39552;45.776;15.892;2023-02-12T12:51:22;102263.13;;;10.01;85.85
53651;BME280;39552;45.776;15.892;2023-02-12T12:54:02;102263.16;;;10.00;87.74
53651;BME280;39552;45.776;15.892;2023-02-12T12:56:47;102249.81;;;9.92;86.68
53651;BME280;39552;45.776;15.892;2023-02-12T12:59:32;102265.75;;;9.67;87.39
53651;BME280;39552;45.776;15.892;2023-02-12T13:05:35;102271.09;;;9.70;89.00